Nearby METAR Reports

 

KALB - Albany, New York, USA
Distance from station: E 47mi, 75km
Updated: Mon, 10-Dec-2018 7:51pm EST
Clear
Clear
 Wind from N
Wind: N 6 mph , 9 km/h
Temperature: 27°F , -3°C
Wind Chill: 20°F , -7°C
Dew Point: 16°F , -9°C
Humidity: 64%
Barometer: 30.19 inHg , 1022.4 hPa
Clouds: Clear
Visibility: 10 miles , 16 km
2018/12/11 00:51 KALB 110051Z 35005KT 10SM CLR M03/M09 A3019 RMK AO2 SLP225 T10331089
KSLK - Saranac Lake, New York, USA
Distance from station: N 110mi, 177km
Updated: Mon, 10-Dec-2018 7:51pm EST
Clear
Clear
 Wind from calm
Wind: Calm
Temperature: -0°F , -18°C
Dew Point: -4°F , -20°C
Humidity: 84%
Barometer: 30.08 inHg , 1018.6 hPa
Clouds: Clear
Visibility: 10 miles , 16 km
2018/12/11 00:51 KSLK 110051Z AUTO 00000KT 10SM CLR M18/M20 A3008 RMK AO2 SLP223 T11831200
 
KSYR - Syracuse, New York, USA
Distance from station: W 73mi, 117km
Updated: Mon, 10-Dec-2018 7:54pm EST
Mostly cloudy
Mostly cloudy
 Wind from N
Wind: N 3 mph , 6 km/h
Temperature: 21°F , -6°C
Dew Point: 18°F , -8°C
Humidity: 86%
Barometer: 30.19 inHg , 1022.4 hPa
Clouds: Mostly cloudy
Visibility: 10 miles , 16 km
Cloud details: Mostly cloudy 3800 ft
2018/12/11 00:54 KSYR 110054Z 35003KT 10SM BKN038 M06/M08 A3019 RMK AO2 SLP226 T10561083
KBGM - Binghamton, New York, USA
Distance from station: SW 78mi, 126km
Updated: Mon, 10-Dec-2018 7:53pm EST
Overcast
Overcast
 Wind from N
Wind: N 8 mph , 13 km/h
Temperature: 25°F , -4°C
Wind Chill: 16°F , -9°C
Dew Point: 18°F , -8°C
Humidity: 74%
Barometer: 30.10 inHg , 1019.3 hPa
Clouds: Overcast
Visibility: 10 miles , 16 km
Cloud details: Overcast 2100 ft
2018/12/11 00:53 KBGM 110053Z 01007KT 10SM OVC021 M04/M08 A3010 RMK AO2 SLP217 T10391083
 
KRME - Rome, New York, USA
Distance from station: WNW 43mi, 69km
Updated: Mon, 10-Dec-2018 7:53pm EST
Clear
Clear
 Wind from calm
Wind: Calm
Temperature: 19°F , -7°C
Dew Point: 16°F , -9°C
Humidity: 86%
Barometer: 30.19 inHg , 1022.4 hPa
Clouds: Clear
Visibility: 10 miles , 16 km
2018/12/11 00:53 KRME 110053Z 00000KT 10SM CLR M07/M09 A3019 RMK AO2 SLP230 T10671094
KJFK - New York, New York, USA
Distance from station: SSE 159mi, 256km
Updated: Mon, 10-Dec-2018 7:51pm EST
Few Clouds
Few Clouds
 Wind from N
Wind: N 8 mph , 13 km/h
Temperature: 34°F , 1°C
Wind Chill: 27°F , -3°C
Dew Point: 19°F , -7°C
Humidity: 56%
Barometer: 30.18 inHg , 1022 hPa
Clouds: Few Clouds
Visibility: 10 miles , 16 km
Cloud details: Few Clouds 25000 ft
2018/12/11 00:51 KJFK 110051Z 01007KT 10SM FEW250 01/M07 A3018 RMK AO2 SLP218 T00061067
 
KROC - Rochester, New York, USA
Distance from station: W 150mi, 242km
Updated: Mon, 10-Dec-2018 7:54pm EST
Overcast
Overcast
 Wind from calm
Wind: Calm
Temperature: 30°F , -1°C
Dew Point: 27°F , -3°C
Humidity: 86%
Barometer: 30.16 inHg , 1021.3 hPa
Clouds: Overcast
Visibility: 10 miles , 16 km
Cloud details: Overcast 2800 ft
2018/12/11 00:54 KROC 110054Z 00000KT 10SM OVC028 M01/M03 A3016 RMK AO2 SLP223 T10061033
KART - Watertown, New York, USA
Distance from station: NNW 103mi, 166km
Updated: Mon, 10-Dec-2018 7:56pm EST
Clear
Clear
 Wind from calm
Wind: Calm
Temperature: 7°F , -14°C
Dew Point: 5°F , -15°C
Humidity: 92%
Barometer: 30.19 inHg , 1022.4 hPa
Clouds: Clear
Visibility: 10 miles , 16 km
2018/12/11 00:56 KART 110056Z AUTO 00000KT 10SM CLR M14/M15 A3019 RMK AO2 SLP235 I1000 T11441150
 
KELM - Elmira-Corning, New York, USA
Distance from station: SSW 121mi, 195km
Updated: Mon, 10-Dec-2018 7:53pm EST
Overcast
Overcast
 Wind from calm
Wind: Calm
Temperature: 30°F , -1°C
Dew Point: 21°F , -6°C
Humidity: 69%
Barometer: 30.15 inHg , 1021 hPa
Clouds: Overcast
Visibility: 10 miles , 16 km
Cloud details: Overcast 2900 ft
2018/12/11 00:53 KELM 110053Z 00000KT 10SM OVC029 M01/M06 A3015 RMK AO2 SLP220 T10111061
KJHW - Jamestown, New York, USA
Distance from station: SW 238mi, 383km
Updated: Mon, 10-Dec-2018 7:56pm EST
Overcast
Overcast
 Wind from WSW
Wind: WSW 3 mph , 6 km/h
Temperature: 27°F , -3°C
Dew Point: 21°F , -6°C
Humidity: 80%
Barometer: 30.12 inHg , 1020 hPa
Clouds: Overcast
Visibility: 10 miles , 16 km
Cloud details: Overcast 1500 ft
2018/12/11 00:56 KJHW 110056Z AUTO 24003KT 10SM OVC015 M03/M06 A3012 RMK AO2 SLP228 T10281056 FZRANO
 
KMSS - Massena, New York, USA
Distance from station: N 141mi, 232km
Updated: Mon, 10-Dec-2018 7:53pm EST
Clear
Clear
 Wind from calm
Wind: Calm
Temperature: 9°F , -13°C
Dew Point: 7°F , -14°C
Humidity: 92%
Barometer: 30.23 inHg , 1023.7 hPa
Clouds: Clear
Visibility: 10 miles , 16 km
2018/12/11 00:53 KMSS 110053Z AUTO 00000KT 10SM CLR M13/M14 A3023 RMK AO2 SLP246 T11281144
KBUF - Buffalo, New York, USA
Distance from station: W 204mi, 328km
Updated: Mon, 10-Dec-2018 7:54pm EST
Overcast
Overcast
 Wind from S
Wind: S 3 mph , 6 km/h
Temperature: 32°F , 0°C
Dew Point: 25°F , -4°C
Humidity: 75%
Barometer: 30.14 inHg , 1020.7 hPa
Clouds: Overcast
Visibility: 10 miles , 16 km
Cloud details: Overcast 2500 ft
2018/12/11 00:54 KBUF 110054Z 18003KT 10SM OVC025 00/M04 A3014 RMK AO2 SLP214 T00001044